Time;durP1;ratioP1;P1;durP2;ratioP2;P2;SDS_P1;SDS_P2;PMS_P1;PMS_P2;Temp;Humidity;BMP_temperature;BMP_pressure;BME280_temperature;BME280_humidity;BME280_pressure;Samples;Min_cycle;Max_cycle;Signal;HPM_P1;HPM_P2
2023/08/06 00:00:10;;;;;;;3.22;1.35;;;;;;;12.83;100.00;100784.63;5033565;28;20386;-81
2023/08/06 00:02:36;;;;;;;2.75;1.33;;;;;;;12.85;100.00;100782.66;5043329;28;20036;-81
2023/08/06 00:05:02;;;;;;;3.95;1.52;;;;;;;12.87;100.00;100786.81;5001312;28;20122;-81
2023/08/06 00:07:28;;;;;;;5.05;1.70;;;;;;;12.88;100.00;100779.69;5011843;28;20033;-81
2023/08/06 00:09:54;;;;;;;6.68;1.45;;;;;;;12.89;100.00;100781.34;5004018;28;20040;-81
2023/08/06 00:12:20;;;;;;;8.15;1.42;;;;;;;12.86;100.00;100779.00;5033256;28;20467;-81
2023/08/06 00:14:49;;;;;;;6.43;1.30;;;;;;;12.88;100.00;100790.31;5015069;28;20474;-81
2023/08/06 00:17:15;;;;;;;5.55;1.60;;;;;;;12.82;100.00;100789.06;5030689;28;20029;-81
2023/08/06 00:19:41;;;;;;;3.85;1.48;;;;;;;12.75;100.00;100785.38;4988525;28;20050;-81
2023/08/06 00:22:06;;;;;;;5.70;1.67;;;;;;;12.70;100.00;100780.53;4918139;28;20046;-81
2023/08/06 00:24:33;;;;;;;6.07;1.75;;;;;;;12.69;100.00;100778.03;4976750;28;20038;-81
2023/08/06 00:26:58;;;;;;;6.95;1.30;;;;;;;12.69;100.00;100776.22;5017425;28;20038;-81
2023/08/06 00:29:24;;;;;;;6.38;1.77;;;;;;;12.69;100.00;100783.31;5009289;28;20033;-81
2023/08/06 00:31:50;;;;;;;3.10;1.33;;;;;;;12.71;100.00;100778.72;4995191;28;20041;-81
2023/08/06 00:34:16;;;;;;;5.47;1.42;;;;;;;12.68;100.00;100782.47;4975247;28;20035;-81
2023/08/06 00:36:42;;;;;;;6.32;1.50;;;;;;;12.67;100.00;100780.81;5008638;28;20037;-81
2023/08/06 00:39:08;;;;;;;5.28;1.77;;;;;;;12.61;100.00;100776.94;5009557;28;20034;-81
2023/08/06 00:41:33;;;;;;;5.93;1.30;;;;;;;12.56;100.00;100783.69;4991820;28;20192;-81
2023/08/06 00:43:59;;;;;;;3.08;1.42;;;;;;;12.55;100.00;100779.38;4982087;28;20038;-81
2023/08/06 00:46:25;;;;;;;1.50;1.20;;;;;;;12.56;100.00;100783.69;4976783;28;20037;-81
2023/08/06 00:48:52;;;;;;;2.03;1.33;;;;;;;12.49;100.00;100780.78;4991245;28;20408;-81
2023/08/06 00:51:18;;;;;;;5.47;1.35;;;;;;;12.44;100.00;100780.41;4994784;28;20025;-81
2023/08/06 00:53:45;;;;;;;6.50;1.70;;;;;;;12.32;100.00;100779.75;5005575;28;20068;-81
2023/08/06 00:56:11;;;;;;;6.40;1.77;;;;;;;12.21;100.00;100776.34;5009084;28;20121;-81
2023/08/06 00:58:39;;;;;;;1.90;1.30;;;;;;;12.08;100.00;100779.31;5004049;28;20404;-81
2023/08/06 01:01:04;;;;;;;4.53;1.60;;;;;;;11.98;100.00;100783.78;4999490;28;20058;-81
2023/08/06 01:03:30;;;;;;;3.65;1.45;;;;;;;11.92;100.00;100785.19;4993153;28;20466;-81
2023/08/06 01:05:56;;;;;;;5.43;1.70;;;;;;;11.91;100.00;100778.25;4991394;28;20384;-81
2023/08/06 01:08:38;;;;;;;4.07;1.63;;;;;;;11.94;100.00;100777.97;5001606;28;20045;-79
2023/08/06 01:11:41;;;;;;;5.03;1.95;;;;;;;11.96;100.00;100778.63;4988509;28;20396;-80
2023/08/06 01:14:21;;;;;;;3.40;1.80;;;;;;;11.98;100.00;100779.31;4982410;28;20037;-81
2023/08/06 01:16:50;;;;;;;3.80;1.55;;;;;;;11.94;100.00;100770.00;4987745;28;20096;-81
2023/08/06 01:19:17;;;;;;;9.45;1.50;;;;;;;11.95;100.00;100779.63;5011273;28;20385;-81
2023/08/06 01:21:43;;;;;;;5.35;1.80;;;;;;;11.94;100.00;100777.09;5008218;28;20084;-81
2023/08/06 01:24:09;;;;;;;8.45;1.70;;;;;;;11.92;100.00;100779.91;5009659;28;20039;-81
2023/08/06 01:26:50;;;;;;;3.97;1.80;;;;;;;11.89;100.00;100780.19;5010912;28;20029;-81
2023/08/06 01:29:24;;;;;;;6.43;1.95;;;;;;;11.78;100.00;100776.72;5008890;28;20042;-83
2023/08/06 01:31:52;;;;;;;8.52;2.08;;;;;;;11.73;100.00;100794.03;5025953;28;20032;-81
2023/08/06 01:34:23;;;;;;;3.00;1.30;;;;;;;11.72;100.00;100792.38;4994858;28;20462;-81
2023/08/06 01:36:50;;;;;;;3.55;1.63;;;;;;;11.67;100.00;100790.16;5019927;28;20040;-81
2023/08/06 01:39:16;;;;;;;6.35;2.00;;;;;;;11.62;100.00;100798.53;5009181;28;20029;-81
2023/08/06 01:41:42;;;;;;;5.75;1.25;;;;;;;11.56;100.00;100795.63;5017782;28;20045;-81
2023/08/06 01:44:08;;;;;;;5.43;1.60;;;;;;;11.52;100.00;100806.50;5021157;28;20064;-81
2023/08/06 01:46:34;;;;;;;6.22;1.80;;;;;;;11.48;100.00;100807.72;4993281;28;20130;-81
2023/08/06 01:49:00;;;;;;;2.88;1.40;;;;;;;11.47;100.00;100810.50;4997950;28;20038;-81
2023/08/06 01:51:26;;;;;;;4.90;1.50;;;;;;;11.47;100.00;100815.81;5021713;28;20357;-81
2023/08/06 01:53:51;;;;;;;2.67;1.25;;;;;;;11.43;100.00;100814.44;5020461;28;20040;-81
2023/08/06 01:56:18;;;;;;;4.80;1.13;;;;;;;11.38;100.00;100818.34;5010259;28;20043;-81
2023/08/06 01:58:44;;;;;;;2.90;1.20;;;;;;;11.38;100.00;100820.16;4989972;28;20491;-81
2023/08/06 02:01:10;;;;;;;5.30;1.58;;;;;;;11.40;100.00;100813.72;5024906;28;20462;-82
2023/08/06 02:03:36;;;;;;;7.65;1.05;;;;;;;11.48;100.00;100818.31;5009146;28;20136;-81
2023/08/06 02:06:02;;;;;;;4.00;1.20;;;;;;;11.53;100.00;100813.44;5023940;28;20476;-81
2023/08/06 02:08:28;;;;;;;4.57;1.38;;;;;;;11.58;100.00;100817.50;4972130;28;20044;-81
2023/08/06 02:10:53;;;;;;;3.63;1.40;;;;;;;11.60;100.00;100812.88;5002586;28;20033;-81
2023/08/06 02:13:19;;;;;;;2.90;1.27;;;;;;;11.62;100.00;100816.22;5025759;28;20029;-81
2023/08/06 02:15:48;;;;;;;9.32;1.65;;;;;;;11.66;100.00;100807.00;5008230;28;20029;-81
2023/08/06 02:18:15;;;;;;;3.88;1.45;;;;;;;11.68;100.00;100806.88;5032604;28;20510;-81
2023/08/06 02:20:41;;;;;;;4.60;1.33;;;;;;;11.73;100.00;100804.63;5025200;28;20068;-81
2023/08/06 02:23:07;;;;;;;3.33;1.65;;;;;;;11.74;100.00;100798.34;5019711;28;20030;-81
2023/08/06 02:25:33;;;;;;;6.45;2.08;;;;;;;11.75;100.00;100798.19;5024232;28;20439;-81
2023/08/06 02:27:59;;;;;;;12.13;2.63;;;;;;;11.79;100.00;100796.13;5027315;28;20029;-81
2023/08/06 02:30:25;;;;;;;4.22;2.03;;;;;;;11.82;100.00;100800.31;5010920;28;20048;-81
2023/08/06 02:32:51;;;;;;;4.47;1.83;;;;;;;11.83;100.00;100799.31;5009487;28;20041;-81
2023/08/06 02:35:16;;;;;;;5.15;1.77;;;;;;;11.86;100.00;100801.69;5021129;28;20033;-81
2023/08/06 02:37:42;;;;;;;4.13;1.38;;;;;;;11.88;100.00;100799.72;5005981;28;20396;-80
2023/08/06 02:40:08;;;;;;;9.93;2.00;;;;;;;11.91;100.00;100804.72;5004574;28;20038;-79
2023/08/06 02:42:34;;;;;;;7.93;2.22;;;;;;;11.94;100.00;100812.38;4997079;28;20042;-79
2023/08/06 02:44:59;;;;;;;4.90;1.85;;;;;;;11.98;100.00;100807.63;5022317;28;20042;-81
2023/08/06 02:47:25;;;;;;;5.88;1.70;;;;;;;11.98;100.00;100802.31;5021734;28;20034;-81
2023/08/06 02:49:51;;;;;;;4.65;1.55;;;;;;;12.00;100.00;100797.72;5031076;28;20048;-81
2023/08/06 02:52:18;;;;;;;4.07;1.80;;;;;;;12.00;100.00;100798.56;5013899;28;20092;-81
2023/08/06 02:54:44;;;;;;;5.40;1.92;;;;;;;11.99;100.00;100796.88;5035323;28;20037;-81
2023/08/06 02:57:11;;;;;;;8.98;2.45;;;;;;;12.00;100.00;100803.88;5031415;28;20025;-81
2023/08/06 02:59:37;;;;;;;3.65;1.70;;;;;;;12.05;100.00;100795.47;5020303;28;20033;-81
2023/08/06 03:02:10;;;;;;;7.07;2.50;;;;;;;12.07;100.00;100792.69;5001282;28;20140;-81
2023/08/06 03:04:48;;;;;;;5.90;1.67;;;;;;;12.09;100.00;100790.75;5014116;28;20078;-81
2023/08/06 03:07:14;;;;;;;7.53;2.10;;;;;;;12.10;100.00;100797.72;5014686;28;20480;-81
2023/08/06 03:09:50;;;;;;;7.38;2.38;;;;;;;12.10;100.00;100795.06;5073123;28;20031;-81
2023/08/06 03:12:15;;;;;;;11.38;2.30;;;;;;;12.11;100.00;100794.09;5019708;28;20112;-80
2023/08/06 03:14:42;;;;;;;6.55;2.08;;;;;;;12.11;100.00;100792.28;5029530;28;20549;-80
2023/08/06 03:17:09;;;;;;;4.00;1.80;;;;;;;12.12;100.00;100790.47;5024743;28;20044;-80
2023/08/06 03:19:36;;;;;;;7.65;2.50;;;;;;;12.12;100.00;100795.78;5044018;28;20046;-81
2023/08/06 03:22:02;;;;;;;7.85;2.30;;;;;;;12.14;100.00;100791.97;5028388;28;20030;-81
2023/08/06 03:24:29;;;;;;;6.13;2.10;;;;;;;12.13;100.00;100792.97;5029505;28;20064;-81
2023/08/06 03:26:55;;;;;;;7.97;2.05;;;;;;;12.13;100.00;100787.69;5015486;28;20026;-81
2023/08/06 03:29:23;;;;;;;7.88;2.13;;;;;;;12.18;100.00;100789.03;5031260;28;20059;-81
2023/08/06 03:31:52;;;;;;;9.85;2.05;;;;;;;12.21;100.00;100786.09;5015876;28;20018;-81
2023/08/06 03:34:18;;;;;;;7.95;2.30;;;;;;;12.19;100.00;100796.84;5030889;28;20025;-80
2023/08/06 03:36:45;;;;;;;10.68;2.75;;;;;;;12.20;100.00;100792.38;5034078;28;20115;-81
2023/08/06 03:39:11;;;;;;;5.07;1.95;;;;;;;12.20;100.00;100789.75;5031612;28;20112;-81
2023/08/06 03:41:37;;;;;;;7.82;2.60;;;;;;;12.20;100.00;100792.38;5044579;28;20044;-81
2023/08/06 03:44:03;;;;;;;3.72;2.03;;;;;;;12.19;100.00;100796.00;4997937;28;20029;-81
2023/08/06 03:46:33;;;;;;;4.72;2.00;;;;;;;12.20;100.00;100790.56;5026863;28;20112;-81
2023/08/06 03:49:00;;;;;;;6.28;2.30;;;;;;;12.22;100.00;100793.06;5031301;28;20029;-81
2023/08/06 03:51:26;;;;;;;6.55;2.33;;;;;;;12.22;100.00;100795.69;5013835;28;20025;-81
2023/08/06 03:53:53;;;;;;;5.07;1.85;;;;;;;12.20;100.00;100795.03;5020649;28;20041;-81
2023/08/06 03:56:19;;;;;;;7.90;2.15;;;;;;;12.20;100.00;100795.84;5003785;28;20398;-81
2023/08/06 03:58:44;;;;;;;9.30;3.25;;;;;;;12.18;100.00;100792.53;5014333;28;20426;-81
2023/08/06 04:01:10;;;;;;;7.25;2.17;;;;;;;12.18;100.00;100794.34;4993920;28;20037;-81
2023/08/06 04:07:50;;;;;;;6.32;2.13;;;;;;;12.17;100.00;100793.50;5041316;28;20036;-81
2023/08/06 04:10:16;;;;;;;2.97;2.30;;;;;;;12.17;100.00;100790.03;5029334;28;20037;-81
2023/08/06 04:12:41;;;;;;;6.68;2.20;;;;;;;12.18;100.00;100789.03;5048016;28;20029;-81
2023/08/06 04:15:07;;;;;;;11.75;2.55;;;;;;;12.15;100.00;100790.19;5014712;28;20510;-81
2023/08/06 04:17:33;;;;;;;6.50;2.40;;;;;;;12.17;100.00;100797.97;5045461;28;20056;-81
2023/08/06 04:19:59;;;;;;;6.10;2.40;;;;;;;12.16;100.00;100797.13;5032926;28;20112;-80
2023/08/06 04:22:25;;;;;;;12.00;2.17;;;;;;;12.17;100.00;100798.78;5031194;28;20040;-81
2023/08/06 04:24:51;;;;;;;5.13;1.80;;;;;;;12.18;100.00;100797.00;5046347;28;20029;-81
2023/08/06 04:27:19;;;;;;;5.88;2.00;;;;;;;12.18;100.00;100807.59;5016228;28;20029;-81
2023/08/06 04:29:45;;;;;;;6.72;2.08;;;;;;;12.14;100.00;100796.44;5028780;28;20037;-81
2023/08/06 04:32:12;;;;;;;6.88;2.10;;;;;;;12.14;100.00;100802.59;5004064;28;20022;-81
2023/08/06 04:34:43;;;;;;;4.25;2.08;;;;;;;12.12;100.00;100799.22;5000844;28;20061;-81
2023/08/06 04:37:09;;;;;;;11.18;2.38;;;;;;;12.13;100.00;100800.94;5028570;28;20026;-81
2023/08/06 04:39:35;;;;;;;6.25;2.85;;;;;;;12.13;100.00;100808.03;5025184;28;20036;-81
2023/08/06 04:42:01;;;;;;;5.43;2.03;;;;;;;12.12;100.00;100807.19;5028313;28;20048;-81
2023/08/06 04:44:27;;;;;;;7.50;2.42;;;;;;;12.11;100.00;100808.19;5030987;28;20047;-81
2023/08/06 04:46:53;;;;;;;7.60;2.20;;;;;;;12.11;100.00;100807.34;5029398;28;20412;-81
2023/08/06 04:49:22;;;;;;;4.90;2.05;;;;;;;12.09;100.00;100806.66;5044489;28;20025;-80
2023/08/06 04:51:48;;;;;;;7.50;2.00;;;;;;;12.03;100.00;100815.97;5029590;28;20090;-80
2023/08/06 04:54:14;;;;;;;5.80;1.92;;;;;;;12.01;100.00;100818.78;5042711;28;20025;-80
2023/08/06 04:56:40;;;;;;;6.63;1.92;;;;;;;11.99;100.00;100810.13;5029437;28;20044;-80
2023/08/06 04:59:06;;;;;;;9.48;2.38;;;;;;;12.00;100.00;100814.47;5002798;28;20037;-81
2023/08/06 05:01:32;;;;;;;6.55;2.45;;;;;;;11.98;100.00;100819.06;5046600;28;20025;-81
2023/08/06 05:03:58;;;;;;;6.82;2.85;;;;;;;11.97;100.00;100817.41;5010896;28;20041;-80
2023/08/06 05:06:23;;;;;;;4.63;1.90;;;;;;;11.96;100.00;100828.97;5043336;28;20032;-81
2023/08/06 05:08:49;;;;;;;7.35;2.22;;;;;;;11.97;100.00;100827.16;5041516;28;20025;-80
2023/08/06 05:11:15;;;;;;;4.43;1.60;;;;;;;11.96;100.00;100828.97;5031677;28;20056;-80
2023/08/06 05:13:40;;;;;;;8.55;2.42;;;;;;;11.99;100.00;100835.81;5026405;28;20041;-80
2023/08/06 05:16:06;;;;;;;3.58;1.85;;;;;;;12.00;100.00;100833.00;5022377;28;20112;-80
2023/08/06 05:18:34;;;;;;;4.97;1.90;;;;;;;12.06;100.00;100833.38;5014946;28;20617;-80
2023/08/06 05:21:00;;;;;;;4.38;1.77;;;;;;;12.09;100.00;100841.09;5031034;28;20032;-81
2023/08/06 05:23:26;;;;;;;12.95;2.33;;;;;;;12.07;100.00;100835.06;5031156;28;20550;-81
2023/08/06 05:25:52;;;;;;;12.90;2.28;;;;;;;12.12;100.00;100846.13;5014000;28;20048;-80
2023/08/06 05:28:17;;;;;;;4.72;1.98;;;;;;;12.13;100.00;100840.66;5028683;28;20045;-80
2023/08/06 05:30:43;;;;;;;5.20;1.80;;;;;;;12.17;100.00;100848.34;5047239;28;20044;-80
2023/08/06 05:33:09;;;;;;;9.75;2.38;;;;;;;12.21;100.00;100850.53;5041590;28;20033;-81
2023/08/06 05:35:35;;;;;;;6.13;1.90;;;;;;;12.22;100.00;100857.50;5041791;28;20029;-81
2023/08/06 05:38:00;;;;;;;9.57;3.05;;;;;;;12.25;100.00;100856.38;4996319;28;20114;-80
2023/08/06 05:40:26;;;;;;;6.18;2.33;;;;;;;12.23;100.00;100851.22;5006872;28;20039;-79
2023/08/06 05:42:54;;;;;;;11.52;2.85;;;;;;;12.27;100.00;100855.25;5047213;28;20030;-80
2023/08/06 05:45:20;;;;;;;8.25;1.95;;;;;;;12.29;100.00;100855.13;5011229;28;20040;-80
2023/08/06 05:47:48;;;;;;;7.00;2.38;;;;;;;12.37;100.00;100865.00;5025446;28;20028;-80
2023/08/06 05:50:14;;;;;;;8.52;2.30;;;;;;;12.39;100.00;100866.50;5025152;28;20083;-81
2023/08/06 05:52:40;;;;;;;7.85;2.30;;;;;;;12.43;100.00;100871.50;5019567;28;20036;-80
2023/08/06 05:55:06;;;;;;;8.60;2.15;;;;;;;12.47;100.00;100872.91;5019585;28;20487;-80
2023/08/06 05:57:32;;;;;;;6.75;2.38;;;;;;;12.48;100.00;100867.47;5015405;28;20021;-80
2023/08/06 05:59:58;;;;;;;6.10;2.00;;;;;;;12.51;100.00;100869.81;5031127;28;20411;-80
2023/08/06 06:02:23;;;;;;;4.72;1.85;;;;;;;12.54;100.00;100868.69;5013228;28;20037;-80
2023/08/06 06:04:49;;;;;;;6.00;1.95;;;;;;;12.59;100.00;100865.59;5014022;28;20030;-80
2023/08/06 06:07:15;;;;;;;7.53;2.03;;;;;;;12.60;100.00;100865.44;5025399;28;20029;-80
2023/08/06 06:09:40;;;;;;;6.97;2.33;;;;;;;12.64;100.00;100873.94;5013544;28;20041;-80
2023/08/06 06:12:06;;;;;;;6.47;2.30;;;;;;;12.66;100.00;100866.69;5028819;28;20029;-80
2023/08/06 06:14:32;;;;;;;7.63;2.40;;;;;;;12.68;100.00;100874.50;5045838;28;20074;-80
2023/08/06 06:16:59;;;;;;;7.63;2.45;;;;;;;12.74;100.00;100877.38;5047349;28;20087;-80
2023/08/06 06:19:26;;;;;;;5.82;1.83;;;;;;;12.73;100.00;100885.47;5026748;28;20043;-80
2023/08/06 06:21:53;;;;;;;4.40;1.60;;;;;;;12.69;100.00;100882.28;5009744;28;20041;-80
2023/08/06 06:24:19;;;;;;;4.55;1.58;;;;;;;12.62;100.00;100882.03;5043606;28;20095;-80
2023/08/06 06:26:44;;;;;;;5.80;2.35;;;;;;;12.59;100.00;100887.63;5025657;28;20431;-80
2023/08/06 06:29:10;;;;;;;3.08;1.67;;;;;;;12.57;100.00;100886.94;5030613;28;20048;-80
2023/08/06 06:31:36;;;;;;;5.00;1.83;;;;;;;12.57;100.00;100883.44;5012770;28;20224;-80
2023/08/06 06:34:02;;;;;;;5.05;1.85;;;;;;;12.55;100.00;100885.44;5032098;28;20043;-80
2023/08/06 06:36:28;;;;;;;9.02;1.98;;;;;;;12.48;100.00;100883.38;5031151;28;20032;-80
2023/08/06 06:38:53;;;;;;;7.78;2.03;;;;;;;12.47;100.00;100888.81;5031906;28;20379;-80
2023/08/06 06:41:19;;;;;;;7.00;1.75;;;;;;;12.48;100.00;100888.66;5013398;28;20049;-80
2023/08/06 06:43:45;;;;;;;13.93;3.58;;;;;;;12.51;100.00;100892.84;5009978;28;20037;-81
2023/08/06 06:46:10;;;;;;;7.10;2.45;;;;;;;12.55;100.00;100894.19;5025322;28;20044;-80
2023/08/06 06:48:36;;;;;;;9.52;2.53;;;;;;;12.62;100.00;100892.66;5030854;28;20036;-80
2023/08/06 06:51:02;;;;;;;8.27;3.50;;;;;;;12.66;100.00;100893.19;5045915;28;20029;-81
2023/08/06 06:53:28;;;;;;;9.25;4.13;;;;;;;12.67;100.00;100886.06;5020931;28;20047;-81
2023/08/06 06:55:55;;;;;;;6.07;2.40;;;;;;;12.72;100.00;100897.91;5019932;28;20431;-80
2023/08/06 06:58:21;;;;;;;4.20;1.95;;;;;;;12.77;100.00;100898.28;5016355;28;20038;-80
2023/08/06 07:00:48;;;;;;;6.78;2.17;;;;;;;12.85;100.00;100897.53;5037939;28;20033;-81
2023/08/06 07:03:15;;;;;;;6.30;2.20;;;;;;;12.93;100.00;100912.75;5041329;28;20497;-80
2023/08/06 07:05:43;;;;;;;7.25;2.10;;;;;;;12.97;100.00;100910.59;5032920;28;20033;-81
2023/08/06 07:08:09;;;;;;;6.20;1.77;;;;;;;13.00;100.00;100912.97;5014221;28;20032;-81
2023/08/06 07:10:35;;;;;;;9.65;3.10;;;;;;;13.05;100.00;100907.22;5003378;28;20061;-81
2023/08/06 07:13:01;;;;;;;6.43;2.25;;;;;;;13.07;100.00;100908.75;5025107;28;20033;-81
2023/08/06 07:15:26;;;;;;;9.15;3.00;;;;;;;13.11;100.00;100917.22;5025733;28;20036;-80
2023/08/06 07:17:52;;;;;;;8.43;2.30;;;;;;;13.12;100.00;100909.13;5024295;28;20639;-80
2023/08/06 07:20:18;;;;;;;5.22;2.45;;;;;;;13.16;100.00;100914.97;5025523;28;21695;-81
2023/08/06 07:22:44;;;;;;;7.18;1.92;;;;;;;13.18;100.00;100907.69;5058377;28;20103;-81
2023/08/06 07:25:11;;;;;;;6.90;2.25;;;;;;;13.25;100.00;100914.06;5010665;28;20052;-81
2023/08/06 07:27:37;;;;;;;7.32;2.38;;;;;;;13.30;100.00;100907.50;5010822;28;20041;-81
2023/08/06 07:30:05;;;;;;;5.65;2.10;;;;;;;13.33;100.00;100902.69;5029609;28;20025;-81
2023/08/06 07:32:31;;;;;;;7.70;2.25;;;;;;;13.39;100.00;100912.69;5012906;28;20056;-81
2023/08/06 07:35:00;;;;;;;4.32;2.05;;;;;;;13.42;100.00;100914.25;5015340;28;20483;-80
2023/08/06 07:37:29;;;;;;;8.75;2.00;;;;;;;13.47;100.00;100905.81;5042586;28;20021;-81
2023/08/06 07:39:55;;;;;;;8.85;2.67;;;;;;;13.58;100.00;100916.25;5011761;28;20492;-81
2023/08/06 07:42:21;;;;;;;8.32;2.28;;;;;;;13.80;100.00;100900.81;5014513;28;20110;-81
2023/08/06 07:44:55;;;;;;;8.25;1.85;;;;;;;14.11;100.00;100899.53;5044252;28;20028;-81
2023/08/06 07:47:22;;;;;;;9.10;1.90;;;;;;;14.35;100.00;100898.00;5026408;28;20482;-81
2023/08/06 07:49:48;;;;;;;8.43;2.28;;;;;;;14.50;100.00;100895.56;5002732;28;20043;-81
2023/08/06 07:52:13;;;;;;;6.15;1.75;;;;;;;14.66;100.00;100897.47;4997348;28;20026;-81
2023/08/06 07:54:39;;;;;;;7.75;1.67;;;;;;;14.84;100.00;100896.56;5003145;28;20080;-81
2023/08/06 07:57:05;;;;;;;9.07;2.10;;;;;;;14.96;100.00;100894.44;5029837;28;20068;-82
2023/08/06 07:59:31;;;;;;;11.75;2.22;;;;;;;15.09;100.00;100888.66;5047321;28;20472;-81
2023/08/06 08:01:57;;;;;;;9.70;1.77;;;;;;;15.21;100.00;100897.16;5048787;28;20037;-81
2023/08/06 08:04:24;;;;;;;7.88;1.60;;;;;;;15.33;100.00;100890.53;5047767;28;20037;-81
2023/08/06 08:06:49;;;;;;;9.65;1.95;;;;;;;15.47;100.00;100897.03;5027976;28;20033;-81
2023/08/06 08:09:15;;;;;;;8.88;1.75;;;;;;;15.59;100.00;100902.84;5037816;28;20041;-81
2023/08/06 08:11:41;;;;;;;9.77;1.90;;;;;;;15.59;100.00;100902.03;5015499;28;20032;-81
2023/08/06 08:14:07;;;;;;;9.80;2.80;;;;;;;15.53;100.00;100905.34;5014734;28;20037;-81
2023/08/06 08:16:33;;;;;;;10.40;2.13;;;;;;;15.47;100.00;100907.69;5013880;28;20037;-81
2023/08/06 08:18:59;;;;;;;8.68;2.03;;;;;;;15.40;100.00;100905.84;5019439;28;20081;-81
2023/08/06 08:21:25;;;;;;;9.25;2.00;;;;;;;15.33;100.00;100911.84;5034778;28;20045;-81
2023/08/06 08:23:51;;;;;;;7.40;1.65;;;;;;;15.22;100.00;100904.16;5013874;28;20036;-81
2023/08/06 08:26:17;;;;;;;11.02;1.98;;;;;;;15.16;100.00;100900.28;5029379;28;20033;-82
2023/08/06 08:28:43;;;;;;;9.35;1.77;;;;;;;15.15;100.00;100897.78;5033568;28;20785;-81
2023/08/06 08:31:11;;;;;;;13.43;1.90;;;;;;;15.13;100.00;100912.13;5015819;28;20037;-81
2023/08/06 08:33:37;;;;;;;9.75;1.60;;;;;;;15.12;100.00;100906.94;5009479;28;20612;-81
2023/08/06 08:36:04;;;;;;;5.85;1.40;;;;;;;15.11;100.00;100908.78;5007134;28;20467;-82
2023/08/06 08:38:30;;;;;;;6.63;1.35;;;;;;;15.09;100.00;100904.63;5026596;28;20055;-81
2023/08/06 08:40:56;;;;;;;5.53;1.40;;;;;;;15.09;100.00;100905.47;5024822;28;20219;-81
2023/08/06 08:43:22;;;;;;;5.32;1.65;;;;;;;15.22;100.00;100905.00;5032019;28;20182;-81
2023/08/06 08:45:52;;;;;;;7.43;1.52;;;;;;;15.30;100.00;100900.66;5044689;28;20041;-82
2023/08/06 08:48:19;;;;;;;7.45;1.90;;;;;;;15.25;100.00;100896.69;4997756;28;20050;-81
2023/08/06 08:50:46;;;;;;;6.50;1.23;;;;;;;15.30;100.00;100901.50;5029349;28;20104;-82
2023/08/06 08:53:17;;;;;;;10.57;1.70;;;;;;;15.36;100.00;100900.00;5022176;28;20060;-81
2023/08/06 08:55:44;;;;;;;6.13;1.23;;;;;;;15.41;100.00;100894.19;5036890;28;20032;-81
2023/08/06 08:58:10;;;;;;;7.57;1.75;;;;;;;15.47;100.00;100906.84;5044163;28;20029;-81
2023/08/06 09:00:36;;;;;;;12.15;2.25;;;;;;;15.52;100.00;100906.34;5025908;28;20067;-82
2023/08/06 09:03:06;;;;;;;9.50;1.30;;;;;;;15.60;100.00;100903.69;4995789;28;20116;-81
2023/08/06 09:05:32;;;;;;;12.60;1.90;;;;;;;15.55;100.00;100901.53;5021250;28;20033;-81
2023/08/06 09:08:05;;;;;;;8.60;1.70;;;;;;;15.54;100.00;100897.19;5039838;28;20041;-82
2023/08/06 09:10:31;;;;;;;11.40;1.90;;;;;;;15.53;100.00;100905.34;4997967;28;20120;-81
2023/08/06 09:12:58;;;;;;;5.35;1.70;;;;;;;15.53;100.00;100908.84;5042536;28;20033;-82
2023/08/06 09:15:25;;;;;;;10.18;2.05;;;;;;;15.52;100.00;100909.00;5032868;28;20549;-82
2023/08/06 09:17:52;;;;;;;10.48;2.30;;;;;;;15.52;100.00;100907.19;5046606;28;20103;-81
2023/08/06 09:20:18;;;;;;;4.90;1.10;;;;;;;15.46;100.00;100906.03;5039548;28;20097;-81
2023/08/06 09:22:45;;;;;;;7.75;1.45;;;;;;;15.40;100.00;100901.31;5003968;28;20486;-81
2023/08/06 09:25:13;;;;;;;7.20;1.33;;;;;;;15.40;100.00;100906.66;4998847;28;20055;-81
2023/08/06 09:27:39;;;;;;;5.30;1.20;;;;;;;15.40;100.00;100906.66;5049643;28;20039;-81
2023/08/06 09:30:07;;;;;;;8.93;1.67;;;;;;;15.40;100.00;100901.31;5029875;28;20033;-81
2023/08/06 09:32:53;;;;;;;5.95;1.20;;;;;;;15.44;100.00;100912.50;5033476;28;20036;-81
2023/08/06 09:35:19;;;;;;;;;;;;;;;15.48;100.00;100905.84;5018765;28;20513;-81
2023/08/06 09:37:45;;;;;;;7.88;1.48;;;;;;;15.71;100.00;100906.03;5032225;28;19954;-81
2023/08/06 09:40:28;;;;;;;6.22;1.08;;;;;;;15.96;100.00;100911.31;4998975;28;20036;-82
2023/08/06 09:42:55;;;;;;;6.85;1.15;;;;;;;16.07;100.00;100907.50;4978063;28;20045;-81
2023/08/06 09:45:24;;;;;;;6.00;1.08;;;;;;;16.05;100.00;100906.03;5014291;28;20049;-81
2023/08/06 09:47:50;;;;;;;3.60;1.02;;;;;;;16.10;100.00;100909.03;5015396;28;20038;-82
2023/08/06 09:50:20;;;;;;;4.43;0.90;;;;;;;16.06;100.00;100913.00;5032428;28;20032;-81
2023/08/06 09:52:51;;;;;;;7.20;1.10;;;;;;;16.02;100.00;100915.19;5038845;28;20791;-82
2023/08/06 09:55:18;;;;;;;6.35;1.10;;;;;;;15.95;100.00;100917.66;4952538;28;20036;-81
2023/08/06 09:57:45;;;;;;;4.28;1.27;;;;;;;15.75;100.00;100925.19;5027350;28;20087;-82
2023/08/06 10:00:12;;;;;;;3.47;0.95;;;;;;;15.70;100.00;100927.50;5047287;28;20025;-82
2023/08/06 10:02:41;;;;;;;5.55;1.40;;;;;;;15.73;100.00;100932.50;5047307;28;20538;-82
2023/08/06 10:05:09;;;;;;;4.60;0.90;;;;;;;15.81;100.00;100926.34;5039801;28;20399;-82
2023/08/06 10:07:38;;;;;;;4.93;0.75;;;;;;;15.96;100.00;100929.16;5036982;28;20083;-81
2023/08/06 10:10:05;;;;;;;3.33;0.60;;;;;;;16.19;100.00;100924.00;5012728;28;20845;-82
2023/08/06 10:12:35;;;;;;;2.13;0.85;;;;;;;16.32;100.00;100923.47;5028873;28;20030;-81
2023/08/06 10:15:06;;;;;;;2.22;0.60;;;;;;;16.39;100.00;100918.25;5030551;28;20170;-82
2023/08/06 10:17:34;;;;;;;4.43;1.10;;;;;;;16.42;100.00;100917.91;5010275;28;20061;-81
2023/08/06 10:20:00;;;;;;;5.55;0.80;;;;;;;16.50;100.00;100925.06;5012912;28;20041;-81
2023/08/06 10:22:27;;;;;;;3.85;0.90;;;;;;;16.51;100.00;100928.56;5006505;28;20476;-81
2023/08/06 10:24:57;;;;;;;4.05;0.65;;;;;;;16.48;100.00;100935.91;4997494;28;20106;-82
2023/08/06 10:27:30;;;;;;;4.40;1.10;;;;;;;16.45;100.00;100920.25;5041414;28;20054;-81
2023/08/06 10:30:23;;;;;;;4.45;0.88;;;;;;;16.50;100.00;100927.72;5024912;28;20087;-82
2023/08/06 10:32:51;;;;;;;4.93;0.98;;;;;;;16.59;100.00;100921.38;4991092;28;20075;-81
2023/08/06 10:35:32;;;;;;;3.78;1.08;;;;;;;16.74;100.00;100926.81;5037921;28;20030;-81
2023/08/06 10:38:09;;;;;;;4.00;1.00;;;;;;;16.73;100.00;100929.66;5026329;28;20117;-82
2023/08/06 10:40:36;;;;;;;3.67;0.95;;;;;;;16.70;100.00;100928.19;5023042;28;20493;-82
2023/08/06 10:43:03;;;;;;;3.42;0.93;;;;;;;16.70;100.00;100944.19;5012170;28;20576;-82
2023/08/06 10:45:30;;;;;;;3.40;0.60;;;;;;;16.86;100.00;100937.97;5029774;28;20112;-82
2023/08/06 10:47:57;;;;;;;5.85;1.75;;;;;;;17.08;100.00;100937.38;5010445;28;20041;-82
2023/08/06 10:50:24;;;;;;;4.10;0.98;;;;;;;17.16;100.00;100926.66;5028510;28;20051;-82
2023/08/06 10:52:50;;;;;;;5.72;1.17;;;;;;;17.24;100.00;100931.09;5013269;28;20155;-82
2023/08/06 10:55:25;;;;;;;5.05;0.90;;;;;;;17.36;100.00;100932.34;5023175;28;20043;-81
2023/08/06 10:57:51;;;;;;;3.88;0.95;;;;;;;17.39;100.00;100930.34;5041999;28;20033;-82
2023/08/06 11:00:17;;;;;;;2.83;0.70;;;;;;;17.48;100.00;100931.94;5045728;28;20479;-81
2023/08/06 11:02:46;;;;;;;2.20;0.70;;;;;;;17.54;100.00;100920.53;5005736;28;20132;-82
2023/08/06 11:05:12;;;;;;;3.38;0.80;;;;;;;17.60;100.00;100917.16;5047280;28;20029;-82
2023/08/06 11:07:38;;;;;;;4.28;0.80;;;;;;;17.78;100.00;100913.31;5025537;28;20237;-82
2023/08/06 11:10:09;;;;;;;4.05;1.23;;;;;;;17.79;100.00;100912.31;5017000;28;20442;-82
2023/08/06 11:12:35;;;;;;;4.30;0.77;;;;;;;17.72;100.00;100911.38;5001856;28;20040;-82
2023/08/06 11:15:02;;;;;;;6.65;0.73;;;;;;;17.75;100.00;100907.50;5044318;28;20033;-82
2023/08/06 11:17:32;;;;;;;2.58;0.80;;;;;;;17.71;100.00;100915.06;5017106;28;20041;-82
2023/08/06 11:20:03;;;;;;;4.15;0.90;;;;;;;17.63;100.00;100913.28;5029679;28;20383;-82